createdAt,value
2017-05-01T00:00:01.686Z,10.4
2017-05-01T00:05:02.038Z,10.4
2017-05-01T00:10:01.762Z,10.4
2017-05-01T00:15:01.941Z,10.4
2017-05-01T00:20:02.175Z,10.4
2017-05-01T00:25:02.140Z,10.4
2017-05-01T00:30:02.007Z,10.4
2017-05-01T00:35:01.460Z,10.3
2017-05-01T00:40:01.251Z,10.3
2017-05-01T00:45:02.030Z,10.3
2017-05-01T00:50:01.385Z,10.2
2017-05-01T00:55:02.206Z,10.2
2017-05-01T01:00:02.053Z,10.2
2017-05-01T01:05:01.476Z,10.2
2017-05-01T01:10:01.316Z,10.2
2017-05-01T01:15:01.514Z,10.2
2017-05-01T01:20:01.758Z,10.2
2017-05-01T01:25:01.392Z,10.1
2017-05-01T01:30:02.169Z,10.2
2017-05-01T01:35:01.477Z,10.1
2017-05-01T01:40:01.255Z,10.1
2017-05-01T01:45:02.038Z,10.1
2017-05-01T01:50:01.785Z,10.1
2017-05-01T01:55:01.590Z,10.1
2017-05-01T02:00:01.383Z,10
2017-05-01T02:05:01.967Z,10
2017-05-01T02:10:01.834Z,10
2017-05-01T02:15:01.927Z,10
2017-05-01T02:20:01.441Z,10
2017-05-01T02:25:01.982Z,10
2017-05-01T02:30:01.686Z,10
2017-05-01T02:35:02.121Z,10
2017-05-01T02:40:01.821Z,10
2017-05-01T02:45:01.822Z,10
2017-05-01T02:50:01.311Z,10
2017-05-01T02:55:02.043Z,10
2017-05-01T03:00:01.185Z,10
2017-05-01T03:05:01.715Z,10
2017-05-01T03:10:01.537Z,10
2017-05-01T03:15:01.674Z,10
2017-05-01T03:20:01.948Z,10
2017-05-01T03:25:02.037Z,9.9
2017-05-01T03:30:01.999Z,10
2017-05-01T03:35:01.275Z,10
2017-05-01T03:40:02.134Z,10
2017-05-01T03:45:01.877Z,10
2017-05-01T03:50:01.957Z,10
2017-05-01T03:55:01.846Z,9.9
2017-05-01T04:00:01.994Z,9.9
2017-05-01T04:05:02.021Z,9.9
2017-05-01T04:10:01.804Z,10
2017-05-01T04:15:02.035Z,9.9
2017-05-01T04:20:01.336Z,10
2017-05-01T04:25:01.440Z,9.9
2017-05-01T04:30:01.240Z,9.9
2017-05-01T04:35:01.660Z,10
2017-05-01T04:40:01.768Z,9.9
2017-05-01T04:45:02.003Z,10
2017-05-01T04:50:02.069Z,10
2017-05-01T04:55:01.963Z,10.1
2017-05-01T05:00:02.134Z,10
2017-05-01T05:05:01.228Z,10
2017-05-01T05:10:01.186Z,10
2017-05-01T05:15:01.377Z,10
2017-05-01T05:20:01.410Z,10
2017-05-01T05:25:01.378Z,10.1
2017-05-01T05:30:01.438Z,10.1
2017-05-01T05:35:01.647Z,10.1
2017-05-01T05:40:01.701Z,10.2
2017-05-01T05:45:01.969Z,10.2
2017-05-01T05:50:01.194Z,10.2
2017-05-01T05:55:01.541Z,10.2
2017-05-01T06:00:01.837Z,10.2
2017-05-01T06:05:01.704Z,10.3
2017-05-01T06:10:02.212Z,10.4
2017-05-01T06:15:01.564Z,10.5
2017-05-01T06:20:01.587Z,10.6
2017-05-01T06:25:01.544Z,10.6
2017-05-01T06:30:02.140Z,10.6
2017-05-01T06:35:01.372Z,10.6
2017-05-01T06:40:01.253Z,10.7
2017-05-01T06:45:01.950Z,10.8
2017-05-01T06:50:01.324Z,10.8
2017-05-01T06:55:01.996Z,10.8
2017-05-01T07:00:01.421Z,10.9
2017-05-01T07:05:01.409Z,11
2017-05-01T07:10:01.766Z,11
2017-05-01T07:15:01.203Z,11
2017-05-01T07:20:01.217Z,11
2017-05-01T07:25:01.269Z,11.3
2017-05-01T07:30:01.517Z,11.4
2017-05-01T07:35:01.855Z,11.4
2017-05-01T07:40:01.660Z,11.4
2017-05-01T07:45:01.471Z,11.4
2017-05-01T07:50:02.171Z,11.7
2017-05-01T07:55:02.021Z,11.7
2017-05-01T08:00:01.285Z,11.9
2017-05-01T08:05:02.033Z,11.9
2017-05-01T08:10:02.003Z,11.9
2017-05-01T08:15:01.517Z,12.3
2017-05-01T08:20:01.924Z,12.3
2017-05-01T08:25:01.865Z,12.3
2017-05-01T08:30:02.136Z,12.3
2017-05-01T08:35:01.466Z,12.6
2017-05-01T08:40:01.306Z,12.7
2017-05-01T08:45:01.990Z,12.7
2017-05-01T08:50:01.579Z,13
2017-05-01T08:55:01.253Z,13.1
2017-05-01T09:00:01.532Z,13.2
2017-05-01T09:05:01.888Z,13.3
2017-05-01T09:10:01.533Z,13.5
2017-05-01T09:15:01.856Z,13.5
2017-05-01T09:20:02.200Z,13.7
2017-05-01T09:25:01.248Z,13.7
2017-05-01T09:30:01.615Z,13.7
2017-05-01T09:35:01.641Z,13.9
2017-05-01T09:40:01.397Z,14
2017-05-01T09:45:02.154Z,14.1
2017-05-01T09:50:02.063Z,14.2
2017-05-01T09:55:01.666Z,14.3
2017-05-01T10:00:02.032Z,14.6
2017-05-01T10:05:01.456Z,14.8
2017-05-01T10:10:01.327Z,15
2017-05-01T10:15:01.293Z,15
2017-05-01T10:20:01.889Z,15
2017-05-01T10:25:01.970Z,15
2017-05-01T10:30:01.333Z,15
2017-05-01T10:35:01.252Z,15
2017-05-01T10:40:02.138Z,15
2017-05-01T10:45:02.024Z,15
2017-05-01T10:50:02.137Z,15
2017-05-01T10:55:01.769Z,15
2017-05-01T11:00:01.527Z,15
2017-05-01T11:05:01.566Z,15
2017-05-01T11:10:01.480Z,15
2017-05-01T11:15:01.844Z,15
2017-05-01T11:20:01.762Z,15
2017-05-01T11:25:01.934Z,15
2017-05-01T11:30:01.480Z,15
2017-05-01T11:35:01.553Z,15
2017-05-01T11:40:01.265Z,15
2017-05-01T11:45:01.782Z,15
2017-05-01T11:50:01.996Z,14.9
2017-05-01T11:55:01.690Z,14.7
2017-05-01T12:00:01.899Z,14.6
2017-05-01T12:05:01.429Z,14.6
2017-05-01T12:10:01.255Z,14.6
2017-05-01T12:15:01.597Z,14.6
2017-05-01T12:20:01.713Z,14.6
2017-05-01T12:25:01.814Z,14.7
2017-05-01T12:30:01.318Z,14.6
2017-05-01T12:35:01.760Z,14.6
2017-05-01T12:40:01.556Z,14.6
2017-05-01T12:45:02.056Z,14.6
2017-05-01T12:50:01.489Z,14.6
2017-05-01T12:55:02.099Z,14.8
2017-05-01T13:00:01.533Z,14.8
2017-05-01T13:05:02.171Z,14.9
2017-05-01T13:10:01.395Z,14.9
2017-05-01T13:15:01.782Z,14.6
2017-05-01T13:20:01.307Z,14.5
2017-05-01T13:25:01.401Z,14.5
2017-05-01T13:30:01.737Z,14.4
2017-05-01T13:35:01.482Z,14.4
2017-05-01T13:40:02.104Z,14.3
2017-05-01T13:45:01.153Z,14.2
2017-05-01T13:50:02.094Z,14.2
2017-05-01T13:55:01.628Z,14.2
2017-05-01T14:00:01.355Z,14.1
2017-05-01T14:05:01.323Z,14.1
2017-05-01T14:10:01.822Z,14.1
2017-05-01T14:15:01.194Z,14
2017-05-01T14:20:01.385Z,13.9
2017-05-01T14:25:01.468Z,13.9
2017-05-01T14:30:01.983Z,13.8
2017-05-01T14:35:01.187Z,13.8
2017-05-01T14:40:01.236Z,13.8
2017-05-01T14:45:01.181Z,13.8
2017-05-01T14:50:01.348Z,13.7
2017-05-01T14:55:01.830Z,13.7
2017-05-01T15:00:01.374Z,13.7
2017-05-01T15:05:01.358Z,13.6
2017-05-01T15:10:02.051Z,13.6
2017-05-01T15:15:01.342Z,13.5
2017-05-01T15:20:02.064Z,13.4
2017-05-01T15:25:01.995Z,13.4
2017-05-01T15:30:01.315Z,13.4
2017-05-01T15:35:02.125Z,13.3
2017-05-01T15:40:01.798Z,13.2
2017-05-01T15:45:01.499Z,13.2
2017-05-01T15:50:01.406Z,13.2
2017-05-01T15:55:01.925Z,13.1
2017-05-01T16:00:02.051Z,13.1
2017-05-01T16:05:01.213Z,13.1
2017-05-01T16:10:02.010Z,13.1
2017-05-01T16:15:01.212Z,13
2017-05-01T16:20:01.516Z,13
2017-05-01T16:25:01.673Z,13
2017-05-01T16:30:01.289Z,12.9
2017-05-01T16:35:01.678Z,12.8
2017-05-01T16:40:01.609Z,12.8
2017-05-01T16:45:02.008Z,12.8
2017-05-01T16:50:01.622Z,12.8
2017-05-01T16:55:02.116Z,12.8
2017-05-01T17:00:01.657Z,12.8
2017-05-01T17:05:01.304Z,12.8
2017-05-01T17:10:02.078Z,12.8
2017-05-01T17:15:01.265Z,12.8
2017-05-01T17:20:01.272Z,12.7
2017-05-01T17:25:01.298Z,12.7
2017-05-01T17:30:01.507Z,12.6
2017-05-01T17:35:01.959Z,12.6
2017-05-01T17:40:01.706Z,12.5
2017-05-01T17:45:01.599Z,12.5
2017-05-01T17:50:01.471Z,12.4
2017-05-01T17:55:01.784Z,12.4
2017-05-01T18:00:02.117Z,12.3
2017-05-01T18:05:01.681Z,12.3
2017-05-01T18:10:02.159Z,12.2
2017-05-01T18:15:01.814Z,12.2
2017-05-01T18:20:01.792Z,12.1
2017-05-01T18:25:01.729Z,12.1
2017-05-01T18:30:01.972Z,12.1
2017-05-01T18:35:01.811Z,12.1
2017-05-01T18:40:02.258Z,12
2017-05-01T18:45:01.984Z,12
2017-05-01T18:50:02.137Z,12
2017-05-01T18:55:01.588Z,12
2017-05-01T19:00:02.070Z,11.9
2017-05-01T19:05:01.387Z,11.9
2017-05-01T19:10:01.752Z,11.9
2017-05-01T19:15:02.163Z,11.9
2017-05-01T19:20:01.239Z,11.8
2017-05-01T19:25:01.515Z,11.8
2017-05-01T19:30:01.804Z,11.7
2017-05-01T19:35:01.303Z,11.7
2017-05-01T19:40:02.088Z,11.6
2017-05-01T19:45:01.661Z,11.6
2017-05-01T19:50:01.995Z,11.6
2017-05-01T19:55:02.139Z,11.6
2017-05-01T20:00:01.579Z,11.6
2017-05-01T20:05:01.752Z,11.6
2017-05-01T20:10:01.719Z,11.6
2017-05-01T20:15:01.732Z,11.6
2017-05-01T20:20:01.984Z,11.5
2017-05-01T20:25:01.325Z,11.5
2017-05-01T20:30:01.910Z,11.5
2017-05-01T20:35:01.807Z,11.4
2017-05-01T20:40:02.119Z,11.4
2017-05-01T20:45:01.596Z,11.4
2017-05-01T20:50:01.358Z,11.3
2017-05-01T20:55:01.986Z,11.4
2017-05-01T21:00:01.518Z,11.3
2017-05-01T21:05:01.525Z,11.3
2017-05-01T21:10:01.312Z,11.3
2017-05-01T21:15:01.851Z,11.3
2017-05-01T21:20:02.133Z,11.2
2017-05-01T21:25:01.478Z,11.2
2017-05-01T21:30:01.839Z,11.2
2017-05-01T21:35:01.611Z,11.2
2017-05-01T21:40:01.664Z,11.2
2017-05-01T21:45:01.898Z,11.2
2017-05-01T21:50:01.971Z,11.2
2017-05-01T21:55:01.434Z,11.2
2017-05-01T22:00:01.890Z,11.1
2017-05-01T22:05:01.742Z,11.2
2017-05-01T22:10:01.747Z,11.1
2017-05-01T22:15:01.835Z,11.1
2017-05-01T22:20:02.130Z,11.1
2017-05-01T22:25:02.435Z,11.1
2017-05-01T22:30:01.579Z,11
2017-05-01T22:35:01.360Z,11
2017-05-01T22:40:01.263Z,11
2017-05-01T22:45:01.425Z,11
2017-05-01T22:50:01.285Z,11
2017-05-01T22:55:01.361Z,11
2017-05-01T23:00:01.319Z,11
2017-05-01T23:05:01.575Z,11
2017-05-01T23:10:01.300Z,10.9
2017-05-01T23:15:01.379Z,10.9
2017-05-01T23:20:02.118Z,10.9
2017-05-01T23:25:01.231Z,10.9
2017-05-01T23:30:01.345Z,10.9
2017-05-01T23:35:01.323Z,10.8
2017-05-01T23:40:01.214Z,10.8
2017-05-01T23:45:02.062Z,10.8
2017-05-01T23:50:01.923Z,10.8
2017-05-01T23:55:01.711Z,10.8
